createdAt,value
2023-04-19T00:00:57.908Z,100034.95
2023-04-19T00:03:26.523Z,100031.72
2023-04-19T00:05:54.730Z,100030.65
2023-04-19T00:08:24.061Z,100026.42
2023-04-19T00:10:52.440Z,100021.62
2023-04-19T00:13:21.984Z,100019.05
2023-04-19T00:15:50.425Z,100014.29
2023-04-19T00:18:18.813Z,100017.08
2023-04-19T00:20:48.922Z,100012.84
2023-04-19T00:23:17.303Z,100010.61
2023-04-19T00:25:46.289Z,100011.44
2023-04-19T00:28:14.801Z,100012.41
2023-04-19T00:30:44.432Z,100012.96
2023-04-19T00:33:13.270Z,100014.15
2023-04-19T00:35:44.284Z,100008.79
2023-04-19T00:38:14.845Z,100015.93
2023-04-19T00:40:46.829Z,100013.33
2023-04-19T00:43:19.030Z,100004.00
2023-04-19T00:45:47.109Z,99995.73
2023-04-19T00:48:15.659Z,99996.27
2023-04-19T00:50:43.900Z,99993.02
2023-04-19T00:53:12.180Z,99990.85
2023-04-19T00:55:40.434Z,99992.36
2023-04-19T00:58:09.031Z,99990.76
2023-04-19T01:00:37.309Z,99989.39
2023-04-19T01:03:05.781Z,99990.10
2023-04-19T01:05:34.886Z,99990.48
2023-04-19T01:08:04.604Z,99987.55
2023-04-19T01:10:32.670Z,99988.51
2023-04-19T01:13:00.793Z,99990.38
2023-04-19T01:15:28.977Z,99988.00
2023-04-19T01:17:57.125Z,99982.63
2023-04-19T01:20:25.695Z,99976.03
2023-04-19T01:22:56.922Z,99977.09
2023-04-19T01:25:25.810Z,99979.63
2023-04-19T01:27:53.826Z,99981.90
2023-04-19T01:30:25.333Z,99980.14
2023-04-19T01:32:56.394Z,99980.61
2023-04-19T01:35:24.925Z,99980.26
2023-04-19T01:37:55.599Z,99984.33
2023-04-19T01:40:24.983Z,99984.11
2023-04-19T01:42:53.375Z,99982.73
2023-04-19T01:45:21.648Z,99981.42
2023-04-19T01:47:52.328Z,99976.80
2023-04-19T01:50:20.531Z,99977.44
2023-04-19T01:52:48.745Z,99977.14
2023-04-19T01:55:16.865Z,99971.89
2023-04-19T01:57:45.114Z,99969.13
2023-04-19T02:00:14.094Z,99967.79
2023-04-19T02:02:42.710Z,99963.97
2023-04-19T02:05:11.681Z,99963.94
2023-04-19T02:07:40.121Z,99963.89
2023-04-19T02:10:10.337Z,99959.27
2023-04-19T02:12:38.825Z,99959.52
2023-04-19T02:15:07.654Z,99950.66
2023-04-19T02:17:36.846Z,99946.18
2023-04-19T02:20:08.288Z,99941.59
2023-04-19T02:22:36.695Z,99940.03
2023-04-19T02:25:05.668Z,99939.61
2023-04-19T02:27:34.981Z,99940.11
2023-04-19T02:30:03.144Z,99936.62
2023-04-19T02:32:32.812Z,99939.33
2023-04-19T02:35:01.083Z,99937.17
2023-04-19T02:37:31.106Z,99934.36
2023-04-19T02:39:59.257Z,99936.79
2023-04-19T02:42:30.529Z,99936.52
2023-04-19T02:44:58.640Z,99937.61
2023-04-19T02:47:26.895Z,99937.77
2023-04-19T02:49:55.695Z,99937.45
2023-04-19T02:52:24.141Z,99943.77
2023-04-19T02:54:52.373Z,99944.88
2023-04-19T02:57:21.205Z,99947.99
2023-04-19T02:59:50.424Z,99951.21
2023-04-19T03:02:18.630Z,99952.27
2023-04-19T03:04:47.563Z,99953.61
2023-04-19T03:07:16.663Z,99954.04
2023-04-19T03:09:45.049Z,99951.20
2023-04-19T03:12:13.223Z,99953.63
2023-04-19T03:14:41.685Z,99954.02
2023-04-19T03:17:10.396Z,99955.23
2023-04-19T03:19:38.813Z,99955.71
2023-04-19T03:22:07.112Z,99953.09
2023-04-19T03:24:37.640Z,99951.48
2023-04-19T03:27:17.817Z,99951.55
2023-04-19T03:29:48.977Z,99957.51
2023-04-19T03:32:17.506Z,99954.41
2023-04-19T03:34:46.115Z,99950.67
2023-04-19T03:37:17.148Z,99946.31
2023-04-19T03:39:45.861Z,99947.95
2023-04-19T03:42:16.464Z,99949.10
2023-04-19T03:44:50.381Z,99952.29
2023-04-19T03:47:19.101Z,99951.08
2023-04-19T03:49:49.432Z,99953.46
2023-04-19T03:52:18.634Z,99950.81
2023-04-19T03:54:46.893Z,99948.09
2023-04-19T03:57:27.324Z,99949.98
2023-04-19T03:59:56.035Z,99950.70
2023-04-19T04:02:24.734Z,99944.78
2023-04-19T04:04:56.602Z,99944.40
2023-04-19T04:07:26.060Z,99943.34
2023-04-19T04:09:55.026Z,99946.46
2023-04-19T04:12:23.465Z,99938.48
2023-04-19T04:14:53.555Z,99937.30
2023-04-19T04:17:24.507Z,99942.66
2023-04-19T04:19:53.140Z,99947.55
2023-04-19T04:22:23.190Z,99949.20
2023-04-19T04:24:54.105Z,99950.26
2023-04-19T04:27:25.593Z,99942.19
2023-04-19T04:29:56.869Z,99938.52
2023-04-19T04:32:25.438Z,99933.30
2023-04-19T04:34:57.261Z,99933.39
2023-04-19T04:37:36.884Z,99933.05
2023-04-19T04:40:06.470Z,99932.69
2023-04-19T04:42:35.836Z,99930.90
2023-04-19T04:45:04.843Z,99933.02
2023-04-19T04:47:34.564Z,99930.73
2023-04-19T04:50:06.111Z,99936.91
2023-04-19T04:52:35.091Z,99942.77
2023-04-19T04:55:10.264Z,99945.39
2023-04-19T04:57:42.803Z,99944.52
2023-04-19T05:00:15.743Z,99947.75
2023-04-19T05:02:51.344Z,99941.19
2023-04-19T05:05:19.831Z,99943.20
2023-04-19T05:07:48.090Z,99942.20
2023-04-19T05:10:16.307Z,99939.73
2023-04-19T05:12:46.611Z,99939.80
2023-04-19T05:15:16.009Z,99940.11
2023-04-19T05:17:51.041Z,99939.77
2023-04-19T05:20:21.166Z,99934.98
2023-04-19T05:22:50.853Z,99931.52
2023-04-19T05:25:20.613Z,99926.52
2023-04-19T05:27:49.148Z,99927.15
2023-04-19T05:30:17.428Z,99923.02
2023-04-19T05:32:46.178Z,99925.42
2023-04-19T05:35:15.407Z,99922.45
2023-04-19T05:37:44.916Z,99920.96
2023-04-19T05:40:14.325Z,99918.39
2023-04-19T05:42:43.775Z,99914.24
2023-04-19T05:45:12.256Z,99911.45
2023-04-19T05:47:41.407Z,99906.02
2023-04-19T05:50:21.248Z,99906.99
2023-04-19T05:53:03.465Z,99901.16
2023-04-19T05:55:32.151Z,99907.74
2023-04-19T05:58:00.811Z,99913.05
2023-04-19T06:00:29.353Z,99913.49
2023-04-19T06:03:01.337Z,99918.66
2023-04-19T06:05:29.687Z,99924.97
2023-04-19T06:08:02.872Z,99917.60
2023-04-19T06:10:44.575Z,99919.14
2023-04-19T06:13:19.760Z,99915.85
2023-04-19T06:15:48.996Z,99915.94
2023-04-19T06:18:19.599Z,99919.13
2023-04-19T06:20:48.684Z,99916.02
2023-04-19T06:23:18.785Z,99910.27
2023-04-19T06:25:49.177Z,99911.23
2023-04-19T06:28:17.720Z,99911.26
2023-04-19T06:30:46.097Z,99909.90
2023-04-19T06:33:14.369Z,99909.34
2023-04-19T06:35:42.952Z,99907.88
2023-04-19T06:38:11.387Z,99907.70
2023-04-19T06:40:39.670Z,99912.66
2023-04-19T06:43:07.773Z,99915.08
2023-04-19T06:45:36.460Z,99918.94
2023-04-19T06:48:05.449Z,99919.05
2023-04-19T06:50:33.838Z,99920.17
2023-04-19T06:53:04.590Z,99918.37
2023-04-19T06:55:33.107Z,99914.31
2023-04-19T06:58:01.445Z,99915.91
2023-04-19T07:00:29.925Z,99923.25
2023-04-19T07:03:00.083Z,99926.71
2023-04-19T07:05:29.542Z,99927.30
2023-04-19T07:07:58.047Z,99929.07
2023-04-19T07:10:26.201Z,99927.17
2023-04-19T07:12:54.372Z,99929.29
2023-04-19T07:15:22.448Z,99935.38
2023-04-19T07:17:50.820Z,99936.50
2023-04-19T07:20:19.205Z,99941.46
2023-04-19T07:22:47.813Z,99944.35
2023-04-19T07:25:16.050Z,99941.92
2023-04-19T07:27:44.855Z,99941.85
2023-04-19T07:30:13.531Z,99944.41
2023-04-19T07:32:42.149Z,99940.74
2023-04-19T07:35:10.820Z,99946.59
2023-04-19T07:37:39.066Z,99946.10
2023-04-19T07:40:07.951Z,99939.41
2023-04-19T07:42:36.235Z,99943.65
2023-04-19T07:45:05.963Z,99942.84
2023-04-19T07:47:34.172Z,99946.72
2023-04-19T07:50:02.422Z,99942.63
2023-04-19T07:52:30.758Z,99950.16
2023-04-19T07:54:58.950Z,99945.21
2023-04-19T07:57:26.982Z,99945.30
2023-04-19T07:59:58.160Z,99939.16
2023-04-19T08:02:28.041Z,99942.20
2023-04-19T08:04:58.184Z,99937.14
2023-04-19T08:07:26.578Z,99936.70
2023-04-19T08:09:55.058Z,99935.85
2023-04-19T08:12:36.358Z,99934.71
2023-04-19T08:15:36.140Z,99926.92
2023-04-19T08:17:58.140Z,99930.24
2023-04-19T08:20:26.875Z,99931.02
2023-04-19T08:22:54.967Z,99931.96
2023-04-19T08:25:26.938Z,99926.79
2023-04-19T08:27:57.543Z,99926.75
2023-04-19T08:30:25.913Z,99928.61
2023-04-19T08:32:56.840Z,99924.99
2023-04-19T08:35:25.405Z,99927.51
2023-04-19T08:37:53.594Z,99921.61
2023-04-19T08:40:21.778Z,99919.39
2023-04-19T08:42:49.864Z,99909.10
2023-04-19T08:45:27.634Z,99909.78
2023-04-19T08:48:01.295Z,99904.48
2023-04-19T08:50:36.015Z,99906.25
2023-04-19T08:55:54.826Z,99911.16
2023-04-19T08:58:52.024Z,99907.67
2023-04-19T09:04:03.355Z,99914.42
2023-04-19T09:06:41.276Z,99912.16
2023-04-19T09:11:50.506Z,99914.35
2023-04-19T09:14:20.391Z,99915.63
2023-04-19T09:16:49.125Z,99913.42
2023-04-19T09:19:24.249Z,99917.55
2023-04-19T09:21:54.794Z,99916.84
2023-04-19T09:27:13.717Z,99917.84
2023-04-19T09:29:41.982Z,99915.61
2023-04-19T09:32:10.377Z,99917.00
2023-04-19T09:34:42.326Z,99907.02
2023-04-19T09:37:21.413Z,99914.36
2023-04-19T09:40:01.087Z,99912.04
2023-04-19T09:48:07.805Z,99908.06
2023-04-19T09:50:50.556Z,99905.42
2023-04-19T09:53:23.576Z,99910.04
2023-04-19T09:56:01.671Z,99903.81
2023-04-19T10:01:14.379Z,99906.17
2023-04-19T10:03:46.771Z,99902.23
2023-04-19T10:08:50.356Z,99900.10
2023-04-19T10:11:21.962Z,99898.42
2023-04-19T10:13:50.125Z,99900.04
2023-04-19T10:16:20.178Z,99899.61
2023-04-19T10:18:50.279Z,99908.90
2023-04-19T10:21:19.310Z,99913.15
2023-04-19T10:23:47.671Z,99913.80
2023-04-19T10:26:16.279Z,99915.70
2023-04-19T10:28:44.375Z,99914.67
2023-04-19T10:31:16.238Z,99915.75
2023-04-19T10:33:44.453Z,99914.45
2023-04-19T10:36:14.935Z,99917.06
2023-04-19T10:38:55.712Z,99914.07
2023-04-19T10:41:23.973Z,99907.75
2023-04-19T10:43:58.213Z,99913.35
2023-04-19T10:46:29.253Z,99914.88
2023-04-19T10:49:01.321Z,99914.67
2023-04-19T10:51:33.721Z,99913.94
2023-04-19T10:54:02.408Z,99918.92
2023-04-19T10:56:34.157Z,99911.23
2023-04-19T10:59:08.422Z,99920.52
2023-04-19T11:01:43.385Z,99921.39
2023-04-19T11:04:12.205Z,99916.66
2023-04-19T11:06:52.948Z,99919.38
2023-04-19T11:09:34.802Z,99916.16
2023-04-19T11:12:10.900Z,99916.13
2023-04-19T11:14:52.420Z,99916.06
2023-04-19T11:17:29.468Z,99917.68
2023-04-19T11:20:09.622Z,99914.73
2023-04-19T11:22:38.760Z,99912.98
2023-04-19T11:25:20.964Z,99916.02
2023-04-19T11:27:53.264Z,99914.30
2023-04-19T11:30:30.756Z,99913.36
2023-04-19T11:32:59.097Z,99912.13
2023-04-19T11:35:28.782Z,99913.80
2023-04-19T11:37:59.018Z,99911.54
2023-04-19T11:40:27.340Z,99917.73
2023-04-19T11:42:55.562Z,99920.70
2023-04-19T11:45:29.857Z,99924.77
2023-04-19T11:47:59.993Z,99925.98
2023-04-19T11:50:32.446Z,99923.81
2023-04-19T11:53:02.714Z,99922.63
2023-04-19T11:55:33.380Z,99917.32
2023-04-19T11:58:01.922Z,99920.38
2023-04-19T12:00:30.702Z,99920.84
2023-04-19T12:02:59.529Z,99920.16
2023-04-19T12:05:28.243Z,99914.31
2023-04-19T12:08:04.136Z,99913.02
2023-04-19T12:10:32.761Z,99915.45
2023-04-19T12:13:01.039Z,99915.58
2023-04-19T12:15:45.079Z,99906.77
2023-04-19T12:18:14.576Z,99914.33
2023-04-19T12:20:47.301Z,99907.52
2023-04-19T12:23:16.260Z,99915.88
2023-04-19T12:25:48.719Z,99910.06
2023-04-19T12:28:17.358Z,99911.02
2023-04-19T12:30:45.599Z,99905.34
2023-04-19T12:33:13.988Z,99907.52
2023-04-19T12:35:43.146Z,99912.27
2023-04-19T12:38:11.413Z,99908.20
2023-04-19T12:40:39.782Z,99905.43
2023-04-19T12:43:08.865Z,99911.27
2023-04-19T12:45:37.131Z,99911.38
2023-04-19T12:48:07.401Z,99911.71
2023-04-19T12:50:36.513Z,99912.56
2023-04-19T12:53:06.752Z,99913.00
2023-04-19T12:55:35.067Z,99910.58
2023-04-19T12:58:03.175Z,99912.32
2023-04-19T13:00:31.822Z,99909.63
2023-04-19T13:03:00.201Z,99917.00
2023-04-19T13:05:28.387Z,99913.41
2023-04-19T13:07:56.860Z,99910.48
2023-04-19T13:10:24.906Z,99909.98
2023-04-19T13:12:52.957Z,99913.41
2023-04-19T13:15:21.141Z,99915.82
2023-04-19T13:17:49.397Z,99917.45
2023-04-19T13:20:20.978Z,99911.77
2023-04-19T13:22:49.195Z,99912.34
2023-04-19T13:25:17.455Z,99918.95
2023-04-19T13:27:47.099Z,99913.55
2023-04-19T13:30:15.606Z,99916.94
2023-04-19T13:32:43.776Z,99917.89
2023-04-19T13:35:11.876Z,99922.05
2023-04-19T13:37:42.370Z,99922.80
2023-04-19T13:40:18.898Z,99918.35
2023-04-19T13:42:48.149Z,99920.09
2023-04-19T13:45:16.271Z,99919.96
2023-04-19T13:47:44.634Z,99919.30
2023-04-19T13:50:13.264Z,99918.12
2023-04-19T13:52:41.407Z,99918.77
2023-04-19T13:55:09.893Z,99920.30
2023-04-19T13:57:38.750Z,99918.16
2023-04-19T14:00:08.463Z,99918.14
2023-04-19T14:02:37.069Z,99916.34
2023-04-19T14:05:06.597Z,99920.55
2023-04-19T14:07:35.186Z,99918.29
2023-04-19T14:10:03.303Z,99915.52
2023-04-19T14:12:32.024Z,99915.41
2023-04-19T14:15:00.203Z,99917.19
2023-04-19T14:17:28.833Z,99914.65
2023-04-19T14:19:57.440Z,99911.68
2023-04-19T14:22:26.030Z,99912.49
2023-04-19T14:24:54.120Z,99914.29
2023-04-19T14:27:22.483Z,99915.85
2023-04-19T14:29:50.969Z,99910.80
2023-04-19T14:32:25.212Z,99914.11
2023-04-19T14:34:55.245Z,99909.03
2023-04-19T14:37:23.923Z,99906.54
2023-04-19T14:39:52.394Z,99909.40
2023-04-19T14:42:22.678Z,99906.33
2023-04-19T14:44:52.151Z,99904.73
2023-04-19T14:47:21.070Z,99902.83
2023-04-19T14:49:49.530Z,99905.02
2023-04-19T14:52:17.900Z,99906.05
2023-04-19T14:54:46.350Z,99905.84
2023-04-19T14:57:14.610Z,99913.10
2023-04-19T14:59:42.989Z,99913.23
2023-04-19T15:02:13.483Z,99916.28
2023-04-19T15:04:42.275Z,99916.54
2023-04-19T15:07:10.871Z,99916.28
2023-04-19T15:09:40.318Z,99917.23
2023-04-19T15:12:08.768Z,99916.42
2023-04-19T15:14:38.591Z,99912.38
2023-04-19T15:17:06.857Z,99909.67
2023-04-19T15:19:35.290Z,99906.74
2023-04-19T15:22:04.212Z,99906.58
2023-04-19T15:24:34.339Z,99914.20
2023-04-19T15:27:02.849Z,99910.32
2023-04-19T15:29:31.019Z,99908.14
2023-04-19T15:31:59.273Z,99904.55
2023-04-19T15:34:27.376Z,99905.73
2023-04-19T15:36:55.614Z,99902.96
2023-04-19T15:39:23.916Z,99907.83
2023-04-19T15:41:52.224Z,99911.43
2023-04-19T15:44:20.544Z,99913.25
2023-04-19T15:46:48.905Z,99917.73
2023-04-19T15:49:17.766Z,99913.35
2023-04-19T15:51:46.149Z,99904.14
2023-04-19T15:54:14.887Z,99901.77
2023-04-19T15:56:43.058Z,99899.70
2023-04-19T15:59:11.264Z,99895.55
2023-04-19T16:01:39.850Z,99901.12
2023-04-19T16:04:08.256Z,99899.29
2023-04-19T16:06:36.465Z,99899.86
2023-04-19T16:09:04.845Z,99895.58
2023-04-19T16:11:33.233Z,99896.07
2023-04-19T16:14:01.293Z,99893.20
2023-04-19T16:16:33.071Z,99895.92
2023-04-19T16:19:01.450Z,99896.29
2023-04-19T16:21:30.080Z,99898.98
2023-04-19T16:23:58.587Z,99900.91
2023-04-19T16:26:26.901Z,99899.08
2023-04-19T16:28:55.051Z,99905.33
2023-04-19T16:31:23.406Z,99906.56
2023-04-19T16:33:51.801Z,99905.13
2023-04-19T16:36:19.943Z,99908.65
2023-04-19T16:38:48.251Z,99904.71
2023-04-19T16:41:16.456Z,99910.38
2023-04-19T16:43:45.011Z,99912.07
2023-04-19T16:46:13.413Z,99909.18
2023-04-19T16:48:41.664Z,99912.95
2023-04-19T16:51:09.806Z,99915.01
2023-04-19T16:53:37.954Z,99918.95
2023-04-19T16:56:06.579Z,99916.79
2023-04-19T16:58:34.877Z,99915.55
2023-04-19T17:01:03.458Z,99916.02
2023-04-19T17:03:31.984Z,99918.90
2023-04-19T17:06:00.938Z,99915.57
2023-04-19T17:08:28.935Z,99923.05
2023-04-19T17:10:57.402Z,99924.39
2023-04-19T17:13:26.602Z,99928.01
2023-04-19T17:15:54.989Z,99930.62
2023-04-19T17:18:23.332Z,99935.27
2023-04-19T17:20:51.472Z,99935.97
2023-04-19T17:23:19.628Z,99937.27
2023-04-19T17:25:47.725Z,99942.27
2023-04-19T17:28:16.952Z,99942.80
2023-04-19T17:30:45.334Z,99941.75
2023-04-19T17:33:13.736Z,99944.40
2023-04-19T17:35:42.284Z,99943.01
2023-04-19T17:38:11.690Z,99950.73
2023-04-19T17:40:39.863Z,99952.08
2023-04-19T17:43:08.752Z,99954.73
2023-04-19T17:45:37.027Z,99955.91
2023-04-19T17:48:05.586Z,99960.28
2023-04-19T17:50:33.786Z,99963.11
2023-04-19T17:53:01.979Z,99967.45
2023-04-19T17:55:30.345Z,99966.71
2023-04-19T17:57:58.514Z,99968.14
2023-04-19T18:00:26.695Z,99972.77
2023-04-19T18:02:54.998Z,99971.86
2023-04-19T18:05:23.398Z,99971.66
2023-04-19T18:07:51.623Z,99973.15
2023-04-19T18:10:19.894Z,99972.84
2023-04-19T18:12:48.489Z,99971.55
2023-04-19T18:15:16.815Z,99976.17
2023-04-19T18:17:45.756Z,99972.44
2023-04-19T18:20:14.640Z,99973.83
2023-04-19T18:22:43.258Z,99974.14
2023-04-19T18:25:11.492Z,99977.23
2023-04-19T18:27:40.390Z,99973.39
2023-04-19T18:30:09.234Z,99975.16
2023-04-19T18:32:37.641Z,99977.05
2023-04-19T18:35:08.907Z,99973.52
2023-04-19T18:37:39.046Z,99976.48
2023-04-19T18:40:08.434Z,99978.35
2023-04-19T18:42:37.058Z,99974.02
2023-04-19T18:45:06.056Z,99969.30
2023-04-19T18:47:35.892Z,99972.33
2023-04-19T18:50:06.597Z,99971.08
2023-04-19T18:52:36.346Z,99971.33
2023-04-19T18:55:05.814Z,99968.90
2023-04-19T18:57:35.472Z,99969.73
2023-04-19T19:00:06.518Z,99967.83
2023-04-19T19:02:37.687Z,99966.49
2023-04-19T19:05:08.649Z,99962.63
2023-04-19T19:07:37.934Z,99960.09
2023-04-19T19:10:18.562Z,99956.02
2023-04-19T19:12:49.495Z,99952.93
2023-04-19T19:15:18.410Z,99955.30
2023-04-19T19:17:50.383Z,99958.02
2023-04-19T19:20:19.760Z,99952.52
2023-04-19T19:22:48.480Z,99953.59
2023-04-19T19:25:16.776Z,99949.59
2023-04-19T19:28:02.961Z,99947.96
2023-04-19T19:30:34.638Z,99946.95
2023-04-19T19:33:04.934Z,99941.80
2023-04-19T19:35:33.714Z,99944.51
2023-04-19T19:38:01.950Z,99937.10
2023-04-19T19:40:32.480Z,99937.68
2023-04-19T19:43:01.492Z,99931.80
2023-04-19T19:45:32.704Z,99932.08
2023-04-19T19:48:01.252Z,99926.17
2023-04-19T19:53:01.606Z,99923.56
2023-04-19T19:55:30.386Z,99927.63
2023-04-19T19:58:18.684Z,99925.78
2023-04-19T20:00:50.271Z,99923.10
2023-04-19T20:03:33.183Z,99921.58
2023-04-19T20:06:35.264Z,99919.48
2023-04-19T20:08:57.500Z,99919.27
2023-04-19T20:11:25.919Z,99919.92
2023-04-19T20:13:54.069Z,99917.65
2023-04-19T20:16:23.379Z,99920.29
2023-04-19T20:18:52.835Z,99916.20
2023-04-19T20:21:21.287Z,99917.94
2023-04-19T20:23:49.447Z,99913.81
2023-04-19T20:26:17.503Z,99914.25
2023-04-19T20:28:45.610Z,99908.37
2023-04-19T20:31:14.511Z,99912.70
2023-04-19T20:33:42.897Z,99909.42
2023-04-19T20:36:13.851Z,99910.45
2023-04-19T20:38:42.800Z,99907.77
2023-04-19T20:41:12.352Z,99910.27
2023-04-19T20:43:40.485Z,99906.27
2023-04-19T20:46:08.660Z,99905.65
2023-04-19T20:48:37.480Z,99903.64
2023-04-19T20:51:05.822Z,99904.88
2023-04-19T20:53:34.312Z,99900.73
2023-04-19T20:56:02.941Z,99899.82
2023-04-19T20:58:33.421Z,99898.73
2023-04-19T21:01:01.653Z,99894.27
2023-04-19T21:03:30.079Z,99894.63
2023-04-19T21:05:58.453Z,99896.36
2023-04-19T21:08:26.856Z,99892.59
2023-04-19T21:10:55.205Z,99892.87
2023-04-19T21:13:25.072Z,99890.09
2023-04-19T21:15:53.323Z,99890.48
2023-04-19T21:18:21.792Z,99885.09
2023-04-19T21:20:49.849Z,99881.87
2023-04-19T21:23:18.129Z,99878.50
2023-04-19T21:25:46.407Z,99873.88
2023-04-19T21:28:14.691Z,99870.59
2023-04-19T21:30:43.566Z,99869.89
2023-04-19T21:33:12.155Z,99874.79
2023-04-19T21:35:40.360Z,99870.94
2023-04-19T21:38:08.502Z,99870.03
2023-04-19T21:40:36.675Z,99866.56
2023-04-19T21:43:04.784Z,99864.04
2023-04-19T21:45:33.434Z,99859.00
2023-04-19T21:48:01.816Z,99857.96
2023-04-19T21:50:30.498Z,99855.45
2023-04-19T21:52:58.876Z,99851.95
2023-04-19T21:55:27.167Z,99849.24
2023-04-19T21:57:55.638Z,99842.79
2023-04-19T22:00:24.266Z,99842.19
2023-04-19T22:02:52.646Z,99838.27
2023-04-19T22:05:21.172Z,99833.52
2023-04-19T22:07:49.361Z,99831.79
2023-04-19T22:10:17.588Z,99827.29
2023-04-19T22:12:57.819Z,99826.21
2023-04-19T22:15:28.130Z,99825.45
2023-04-19T22:17:57.584Z,99824.08
2023-04-19T22:20:26.944Z,99823.14
2023-04-19T22:22:55.928Z,99821.54
2023-04-19T22:25:23.971Z,99822.61
2023-04-19T22:27:52.111Z,99823.02
2023-04-19T22:30:20.437Z,99821.02
2023-04-19T22:32:48.595Z,99817.31
2023-04-19T22:35:17.185Z,99815.92
2023-04-19T22:37:45.773Z,99817.44
2023-04-19T22:40:13.993Z,99815.48
2023-04-19T22:42:42.503Z,99808.86
2023-04-19T22:45:11.101Z,99809.18
2023-04-19T22:47:39.751Z,99811.44
2023-04-19T22:50:09.000Z,99811.41
2023-04-19T22:52:37.490Z,99807.73
2023-04-19T22:55:07.171Z,99802.02
2023-04-19T22:57:35.839Z,99801.30
2023-04-19T23:00:05.542Z,99798.88
2023-04-19T23:02:34.155Z,99796.39
2023-04-19T23:05:02.348Z,99799.52
2023-04-19T23:07:30.902Z,99796.14
2023-04-19T23:09:59.084Z,99793.92
2023-04-19T23:12:27.669Z,99789.89
2023-04-19T23:14:56.045Z,99790.05
2023-04-19T23:17:24.424Z,99785.44
2023-04-19T23:19:52.714Z,99783.62
2023-04-19T23:22:21.113Z,99785.05
2023-04-19T23:24:49.156Z,99786.76
2023-04-19T23:27:17.436Z,99782.86
2023-04-19T23:29:45.812Z,99781.23
2023-04-19T23:32:13.855Z,99780.79
2023-04-19T23:34:41.954Z,99779.73
2023-04-19T23:37:11.977Z,99779.81
2023-04-19T23:39:40.170Z,99776.14
2023-04-19T23:42:08.516Z,99776.38
2023-04-19T23:44:38.149Z,99775.30
2023-04-19T23:47:06.403Z,99775.29
2023-04-19T23:49:35.609Z,99766.48
2023-04-19T23:52:03.855Z,99762.58
2023-04-19T23:54:32.753Z,99759.50
2023-04-19T23:57:01.985Z,99759.41
2023-04-19T23:59:32.961Z,99757.96
